createdAt,value
2022-08-08T00:02:04.166Z,54.39
2022-08-08T00:05:09.743Z,55.57
2022-08-08T00:08:14.668Z,56.53
2022-08-08T00:10:52.529Z,57.26
2022-08-08T00:14:15.310Z,57.99
2022-08-08T00:16:37.481Z,58.66
2022-08-08T00:19:26.767Z,59.75
2022-08-08T00:22:03.058Z,60.37
2022-08-08T00:24:42.367Z,60.93
2022-08-08T00:27:11.879Z,61.49
2022-08-08T00:29:47.092Z,63.24
2022-08-08T00:32:34.258Z,62.08
2022-08-08T00:35:59.356Z,58.06
2022-08-08T00:38:54.523Z,56.68
2022-08-08T00:41:45.170Z,57.18
2022-08-08T00:44:46.698Z,57.89
2022-08-08T00:48:29.980Z,58.71
2022-08-08T00:51:09.627Z,59.54
2022-08-08T00:54:04.032Z,59.76
2022-08-08T00:56:55.209Z,60.19
2022-08-08T00:59:57.296Z,60.39
2022-08-08T01:03:54.034Z,60.61
2022-08-08T01:06:16.255Z,60.90
2022-08-08T01:08:54.511Z,61.53
2022-08-08T01:12:00.208Z,64.34
2022-08-08T01:15:37.005Z,62.37
2022-08-08T01:18:53.544Z,55.35
2022-08-08T01:22:12.090Z,55.59
2022-08-08T01:25:26.439Z,56.55
2022-08-08T01:28:15.754Z,57.70
2022-08-08T01:32:05.808Z,58.77
2022-08-08T01:34:53.144Z,59.44
2022-08-08T01:38:00.229Z,60.31
2022-08-08T01:40:39.985Z,60.93
2022-08-08T01:44:14.246Z,61.57
2022-08-08T01:48:14.005Z,65.16
2022-08-08T01:50:25.878Z,61.10
2022-08-08T01:54:57.534Z,55.32
2022-08-08T01:56:47.185Z,54.93
2022-08-08T02:00:03.054Z,56.37
2022-08-08T02:02:39.884Z,57.83
2022-08-08T02:05:55.750Z,59.16
2022-08-08T02:08:33.910Z,60.37
2022-08-08T02:11:23.173Z,61.59
2022-08-08T02:14:11.159Z,64.44
2022-08-08T02:17:18.189Z,62.25
2022-08-08T02:21:00.721Z,56.03
2022-08-08T02:23:43.802Z,55.48
2022-08-08T02:26:20.838Z,56.60
2022-08-08T02:29:18.707Z,57.58
2022-08-08T02:32:06.345Z,58.41
2022-08-08T02:35:07.791Z,59.30
2022-08-08T02:38:34.616Z,60.09
2022-08-08T02:42:03.927Z,60.51
2022-08-08T02:44:58.797Z,60.58
2022-08-08T02:47:52.020Z,61.32
2022-08-08T02:51:00.393Z,64.79
2022-08-08T02:54:01.354Z,62.19
2022-08-08T02:57:00.813Z,56.44
2022-08-08T03:00:27.034Z,56.02
2022-08-08T03:05:01.633Z,57.15
2022-08-08T03:07:11.121Z,57.83
2022-08-08T03:10:33.627Z,59.07
2022-08-08T03:13:34.191Z,60.25
2022-08-08T03:16:35.247Z,61.42
2022-08-08T03:19:17.794Z,64.45
2022-08-08T03:21:59.086Z,62.41
2022-08-08T03:24:27.131Z,57.34
2022-08-08T03:27:27.357Z,56.58
2022-08-08T03:30:03.485Z,57.71
2022-08-08T03:32:58.598Z,58.91
2022-08-08T03:35:30.174Z,59.92
2022-08-08T03:38:57.410Z,60.74
2022-08-08T03:40:53.111Z,61.42
2022-08-08T03:43:20.397Z,62.12
2022-08-08T03:46:05.066Z,64.71
2022-08-08T03:49:09.987Z,63.74
2022-08-08T03:51:40.371Z,60.11
2022-08-08T03:54:08.510Z,55.35
2022-08-08T03:56:37.502Z,55.30
2022-08-08T03:59:04.316Z,56.60
2022-08-08T04:02:32.794Z,57.93
2022-08-08T04:04:30.474Z,58.94
2022-08-08T04:07:01.010Z,60.16
2022-08-08T04:09:28.675Z,60.60
2022-08-08T04:12:15.984Z,61.48
2022-08-08T04:14:44.979Z,63.97
2022-08-08T04:17:22.200Z,62.65
2022-08-08T04:19:58.458Z,57.68
2022-08-08T04:22:29.373Z,56.52
2022-08-08T04:24:56.513Z,57.14
2022-08-08T04:28:01.949Z,57.82
2022-08-08T04:30:18.590Z,58.72
2022-08-08T04:32:50.140Z,59.34
2022-08-08T04:35:20.118Z,59.70
2022-08-08T04:37:51.012Z,59.83
2022-08-08T04:40:18.287Z,60.14
2022-08-08T04:42:56.204Z,60.37
2022-08-08T04:45:25.426Z,60.44
2022-08-08T04:47:53.933Z,60.64
2022-08-08T04:50:23.888Z,60.92
2022-08-08T04:52:58.571Z,61.07
2022-08-08T04:55:37.579Z,61.08
2022-08-08T04:58:18.818Z,61.29
2022-08-08T05:00:48.380Z,61.57
2022-08-08T05:03:19.120Z,61.47
2022-08-08T05:06:12.557Z,61.52
2022-08-08T05:08:51.557Z,61.92
2022-08-08T05:11:24.700Z,64.14
2022-08-08T05:14:02.335Z,62.87
2022-08-08T05:16:54.856Z,57.72
2022-08-08T05:20:09.733Z,56.04
2022-08-08T05:22:24.386Z,56.79
2022-08-08T05:24:52.044Z,57.55
2022-08-08T05:27:23.483Z,58.22
2022-08-08T05:29:54.952Z,58.58
2022-08-08T05:32:27.038Z,58.60
2022-08-08T05:34:58.604Z,58.94
2022-08-08T05:37:49.084Z,59.23
2022-08-08T05:40:28.088Z,59.46
2022-08-08T05:43:17.306Z,59.41
2022-08-08T05:46:10.241Z,59.50
2022-08-08T05:48:43.317Z,59.79
2022-08-08T05:51:17.341Z,60.17
2022-08-08T05:54:24.656Z,60.35
2022-08-08T05:56:42.300Z,60.22
2022-08-08T06:00:00.957Z,59.89
2022-08-08T06:02:41.014Z,59.91
2022-08-08T06:05:33.460Z,59.89
2022-08-08T06:08:10.285Z,59.60
2022-08-08T06:10:51.797Z,59.46
2022-08-08T06:13:23.476Z,59.36
2022-08-08T06:15:54.980Z,59.33
2022-08-08T06:18:24.762Z,59.11
2022-08-08T06:20:58.379Z,58.83
2022-08-08T06:23:48.588Z,58.75
2022-08-08T06:26:38.904Z,58.65
2022-08-08T06:29:26.681Z,58.04
2022-08-08T06:32:10.113Z,57.76
2022-08-08T06:34:56.344Z,57.03
2022-08-08T06:37:39.235Z,56.03
2022-08-08T06:40:14.327Z,55.45
2022-08-08T06:42:52.658Z,54.80
2022-08-08T06:45:22.552Z,54.18
2022-08-08T06:47:52.379Z,54.47
2022-08-08T06:50:32.489Z,53.58
2022-08-08T06:53:14.223Z,53.29
2022-08-08T06:56:01.927Z,52.54
2022-08-08T06:58:33.262Z,52.13
2022-08-08T07:01:11.531Z,51.25
2022-08-08T07:04:37.899Z,50.12
2022-08-08T07:06:56.949Z,50.13
2022-08-08T07:09:45.105Z,49.69
2022-08-08T07:12:40.791Z,48.89
2022-08-08T07:15:31.723Z,45.77
2022-08-08T07:18:35.593Z,44.78
2022-08-08T07:21:05.495Z,44.09
2022-08-08T07:24:03.295Z,42.90
2022-08-08T07:26:35.558Z,41.23
2022-08-08T07:29:07.978Z,39.95
2022-08-08T07:31:39.674Z,39.30
2022-08-08T07:34:09.354Z,39.38
2022-08-08T07:36:48.224Z,38.02
2022-08-08T07:39:29.717Z,37.13
2022-08-08T07:42:18.871Z,36.80
2022-08-08T07:44:47.664Z,36.37
2022-08-08T07:47:14.397Z,35.17
2022-08-08T07:49:41.094Z,34.29
2022-08-08T07:52:22.846Z,33.14
2022-08-08T07:55:18.483Z,32.66
2022-08-08T07:58:29.174Z,33.28
2022-08-08T08:01:13.275Z,32.36
2022-08-08T08:03:55.067Z,32.00
2022-08-08T08:06:27.137Z,30.79
2022-08-08T08:09:06.731Z,30.63
2022-08-08T08:11:51.130Z,30.42
2022-08-08T08:14:43.584Z,30.91
2022-08-08T08:17:14.837Z,29.63
2022-08-08T08:19:45.833Z,28.45
2022-08-08T08:22:14.998Z,28.39
2022-08-08T08:24:43.202Z,28.96
2022-08-08T08:27:13.269Z,27.40
2022-08-08T08:29:39.927Z,27.41
2022-08-08T08:32:09.252Z,26.96
2022-08-08T08:34:43.177Z,27.33
2022-08-08T08:37:09.934Z,27.27
2022-08-08T08:39:59.481Z,27.53
2022-08-08T08:42:31.631Z,27.57
2022-08-08T08:45:20.983Z,26.84
2022-08-08T08:47:54.772Z,26.43
2022-08-08T08:50:32.667Z,25.67
2022-08-08T08:53:28.093Z,26.10
2022-08-08T08:56:01.845Z,26.43
2022-08-08T08:58:46.798Z,26.05
2022-08-08T09:01:20.034Z,25.71
2022-08-08T09:03:50.699Z,25.56
2022-08-08T09:06:28.371Z,24.65
2022-08-08T09:09:39.322Z,24.04
2022-08-08T09:12:16.747Z,24.36
2022-08-08T09:14:48.963Z,24.62
2022-08-08T09:17:19.080Z,24.84
2022-08-08T09:21:57.376Z,24.23
2022-08-08T09:22:34.703Z,24.25
2022-08-08T09:25:01.505Z,24.25
2022-08-08T09:27:55.548Z,24.04
2022-08-08T09:30:17.268Z,24.24
2022-08-08T09:33:11.920Z,24.70
2022-08-08T09:35:49.559Z,24.67
2022-08-08T09:38:54.170Z,24.35
2022-08-08T09:42:08.011Z,24.91
2022-08-08T09:44:33.842Z,24.79
2022-08-08T09:47:26.455Z,24.86
2022-08-08T09:49:53.035Z,24.30
2022-08-08T09:52:56.299Z,24.35
2022-08-08T09:55:15.385Z,24.41
2022-08-08T09:58:02.833Z,24.61
2022-08-08T10:00:53.141Z,25.24
2022-08-08T10:03:20.923Z,24.75
2022-08-08T10:05:48.755Z,24.68
2022-08-08T10:08:16.181Z,24.58
2022-08-08T10:10:50.088Z,24.25
2022-08-08T10:13:25.993Z,24.80
2022-08-08T10:16:01.954Z,24.94
2022-08-08T10:18:32.895Z,24.70
2022-08-08T10:21:25.091Z,24.91
2022-08-08T10:24:29.955Z,24.62
2022-08-08T10:27:13.132Z,25.06
2022-08-08T10:30:03.937Z,24.90
2022-08-08T10:32:37.519Z,24.98
2022-08-08T10:36:07.625Z,24.69
2022-08-08T10:38:05.716Z,24.43
2022-08-08T10:40:37.957Z,24.36
2022-08-08T10:43:06.311Z,24.45
2022-08-08T10:45:55.793Z,24.42
2022-08-08T10:48:38.777Z,24.79
2022-08-08T10:51:26.250Z,24.50
2022-08-08T10:53:59.579Z,24.55
2022-08-08T10:56:34.884Z,24.78
2022-08-08T10:59:08.856Z,25.22
2022-08-08T11:01:43.101Z,25.64
2022-08-08T11:04:14.368Z,25.52
2022-08-08T11:06:47.468Z,25.87
2022-08-08T11:09:21.435Z,26.09
2022-08-08T11:12:05.730Z,25.98
2022-08-08T11:15:00.065Z,26.04
2022-08-08T11:17:59.360Z,26.11
2022-08-08T11:20:41.268Z,26.24
2022-08-08T11:23:22.811Z,26.58
2022-08-08T11:25:55.434Z,26.76
2022-08-08T11:28:26.047Z,26.98
2022-08-08T11:30:59.687Z,26.59
2022-08-08T11:33:49.616Z,26.76
2022-08-08T11:36:16.763Z,27.08
2022-08-08T11:38:54.771Z,27.27
2022-08-08T11:41:35.873Z,27.44
2022-08-08T11:44:04.690Z,27.86
2022-08-08T11:46:35.432Z,28.16
2022-08-08T11:49:09.264Z,28.30
2022-08-08T11:51:40.239Z,28.62
2022-08-08T11:54:31.727Z,28.72
2022-08-08T11:57:23.738Z,28.99
2022-08-08T12:00:05.964Z,29.51
2022-08-08T12:02:59.576Z,29.78
2022-08-08T12:05:44.061Z,30.05
2022-08-08T12:12:01.722Z,29.98
2022-08-08T12:14:31.991Z,30.10
2022-08-08T12:17:03.347Z,30.32
2022-08-08T12:19:50.751Z,30.43
2022-08-08T12:22:22.765Z,30.61
2022-08-08T12:25:00.901Z,30.63
2022-08-08T12:27:45.525Z,30.56
2022-08-08T12:30:18.466Z,30.60
2022-08-08T12:32:49.414Z,30.75
2022-08-08T12:35:22.439Z,30.97
2022-08-08T12:38:07.133Z,31.14
2022-08-08T12:40:56.988Z,30.90
2022-08-08T12:43:46.443Z,31.14
2022-08-08T12:46:26.096Z,31.12
2022-08-08T12:51:58.828Z,30.88
2022-08-08T12:54:37.280Z,30.90
2022-08-08T12:57:24.310Z,30.78
2022-08-08T13:00:06.918Z,30.77
2022-08-08T13:02:51.406Z,31.27
2022-08-08T13:06:04.257Z,30.95
2022-08-08T13:08:33.080Z,30.55
2022-08-08T13:11:05.396Z,30.80
2022-08-08T13:13:37.921Z,30.50
2022-08-08T13:16:21.060Z,30.86
2022-08-08T13:18:58.438Z,30.84
2022-08-08T13:21:48.959Z,30.60
2022-08-08T13:24:20.864Z,30.24
2022-08-08T13:27:19.898Z,29.99
2022-08-08T13:30:20.746Z,30.29
2022-08-08T13:32:54.462Z,29.69
2022-08-08T13:35:24.919Z,29.28
2022-08-08T13:38:06.223Z,29.70
2022-08-08T13:40:35.055Z,29.52
2022-08-08T13:43:02.598Z,29.60
2022-08-08T13:45:31.005Z,29.47
2022-08-08T13:48:03.791Z,29.73
2022-08-08T13:50:50.474Z,29.57
2022-08-08T13:53:36.473Z,29.60
2022-08-08T13:56:06.809Z,29.86
2022-08-08T13:58:57.528Z,30.02
2022-08-08T14:01:32.951Z,30.11
2022-08-08T14:04:23.223Z,30.19
2022-08-08T14:07:03.535Z,30.47
2022-08-08T14:10:04.550Z,30.87
2022-08-08T14:12:33.560Z,30.85
2022-08-08T14:15:00.774Z,30.86
2022-08-08T14:17:58.145Z,31.06
2022-08-08T14:20:57.517Z,30.96
2022-08-08T14:23:10.271Z,30.74
2022-08-08T14:25:47.211Z,30.89
2022-08-08T14:28:22.024Z,31.01
2022-08-08T14:31:07.672Z,30.95
2022-08-08T14:33:36.714Z,31.20
2022-08-08T14:36:09.558Z,31.36
2022-08-08T14:38:52.972Z,31.33
2022-08-08T14:41:45.575Z,31.42
2022-08-08T14:44:21.027Z,31.45
2022-08-08T14:46:58.319Z,31.31
2022-08-08T14:49:51.439Z,31.28
2022-08-08T14:52:21.398Z,31.44
2022-08-08T14:54:49.296Z,31.54
2022-08-08T14:57:16.703Z,31.57
2022-08-08T14:59:50.077Z,31.62
2022-08-08T15:02:30.771Z,31.72
2022-08-08T15:05:10.556Z,31.53
2022-08-08T15:07:40.321Z,31.39
2022-08-08T15:10:14.101Z,31.63
2022-08-08T15:12:46.594Z,31.69
2022-08-08T15:15:18.517Z,31.70
2022-08-08T15:17:46.335Z,31.74
2022-08-08T15:20:15.597Z,31.68
2022-08-08T15:22:45.242Z,31.69
2022-08-08T15:25:17.985Z,31.71
2022-08-08T15:28:32.499Z,31.69
2022-08-08T15:30:50.759Z,31.59
2022-08-08T15:33:35.415Z,31.95
2022-08-08T15:36:05.186Z,32.07
2022-08-08T15:38:33.061Z,32.20
2022-08-08T15:40:59.420Z,32.22
2022-08-08T15:43:35.944Z,32.30
2022-08-08T15:46:03.682Z,32.31
2022-08-08T15:48:30.864Z,32.34
2022-08-08T15:51:06.264Z,32.43
2022-08-08T15:53:49.285Z,32.54
2022-08-08T15:56:20.077Z,32.55
2022-08-08T15:58:48.516Z,32.49
2022-08-08T16:01:22.933Z,32.67
2022-08-08T16:03:51.549Z,32.79
2022-08-08T16:06:27.775Z,33.12
2022-08-08T16:13:00.290Z,32.87
2022-08-08T16:13:04.579Z,32.95
2022-08-08T16:14:33.618Z,33.04
2022-08-08T16:17:01.517Z,33.21
2022-08-08T16:19:29.672Z,33.35
2022-08-08T16:21:57.047Z,33.49
2022-08-08T16:24:24.058Z,33.59
2022-08-08T16:26:50.973Z,33.39
2022-08-08T16:29:23.782Z,33.22
2022-08-08T16:32:11.626Z,33.10
2022-08-08T16:34:46.497Z,33.18
2022-08-08T16:37:13.076Z,33.22
2022-08-08T16:40:00.412Z,33.21
2022-08-08T16:42:29.742Z,33.28
2022-08-08T16:44:58.325Z,33.40
2022-08-08T16:47:41.407Z,33.51
2022-08-08T16:50:16.081Z,33.66
2022-08-08T16:55:05.350Z,33.70
2022-08-08T16:55:52.372Z,33.81
2022-08-08T16:58:26.732Z,33.70
2022-08-08T17:00:55.192Z,33.72
2022-08-08T17:03:25.322Z,33.78
2022-08-08T17:06:37.251Z,33.80
2022-08-08T17:08:59.348Z,33.93
2022-08-08T17:11:38.669Z,34.07
2022-08-08T17:14:17.796Z,34.15
2022-08-08T17:16:51.897Z,34.40
2022-08-08T17:19:29.631Z,34.57
2022-08-08T17:22:01.467Z,34.46
2022-08-08T17:24:33.988Z,34.68
2022-08-08T17:27:04.980Z,34.64
2022-08-08T17:29:36.340Z,34.65
2022-08-08T17:32:07.809Z,34.76
2022-08-08T17:35:04.509Z,34.90
2022-08-08T17:37:25.058Z,34.94
2022-08-08T17:40:05.683Z,35.16
2022-08-08T17:42:39.100Z,35.26
2022-08-08T17:45:22.239Z,35.46
2022-08-08T17:47:51.302Z,35.41
2022-08-08T17:50:17.847Z,35.66
2022-08-08T17:52:44.323Z,35.82
2022-08-08T17:56:05.613Z,35.91
2022-08-08T17:58:01.871Z,36.02
2022-08-08T18:00:30.558Z,36.22
2022-08-08T18:03:08.553Z,36.54
2022-08-08T18:05:48.889Z,36.46
2022-08-08T18:08:37.783Z,36.49
2022-08-08T18:11:16.064Z,36.62
2022-08-08T18:13:46.915Z,36.83
2022-08-08T18:16:16.943Z,36.89
2022-08-08T18:18:53.235Z,36.98
2022-08-08T18:22:01.524Z,37.07
2022-08-08T18:24:31.406Z,37.13
2022-08-08T18:27:17.111Z,37.39
2022-08-08T18:29:45.064Z,37.39
2022-08-08T18:32:22.351Z,37.53
2022-08-08T18:34:52.288Z,37.59
2022-08-08T18:37:33.919Z,37.61
2022-08-08T18:40:01.615Z,37.82
2022-08-08T18:42:28.968Z,38.01
2022-08-08T18:44:57.397Z,38.20
2022-08-08T18:47:33.473Z,38.44
2022-08-08T18:50:04.618Z,38.40
2022-08-08T18:52:34.915Z,38.69
2022-08-08T18:55:16.439Z,38.89
2022-08-08T18:57:47.035Z,39.15
2022-08-08T19:00:19.862Z,39.29
2022-08-08T19:02:56.049Z,39.45
2022-08-08T19:05:45.539Z,40.74
2022-08-08T19:08:24.891Z,41.30
2022-08-08T19:11:01.789Z,41.80
2022-08-08T19:13:52.545Z,42.18
2022-08-08T19:16:19.163Z,41.87
2022-08-08T19:18:53.329Z,42.01
2022-08-08T19:21:30.565Z,42.17
2022-08-08T19:24:38.938Z,42.09
2022-08-08T19:27:00.542Z,42.10
2022-08-08T19:29:27.272Z,42.13
2022-08-08T19:31:53.879Z,42.37
2022-08-08T19:34:36.045Z,42.73
2022-08-08T19:37:07.171Z,42.94
2022-08-08T19:39:45.769Z,43.09
2022-08-08T19:42:17.891Z,43.63
2022-08-08T19:44:46.179Z,43.50
2022-08-08T19:47:23.953Z,44.06
2022-08-08T19:50:00.083Z,44.63
2022-08-08T19:52:54.331Z,46.15
2022-08-08T19:55:27.179Z,46.49
2022-08-08T19:58:02.651Z,46.18
2022-08-08T20:00:34.769Z,46.79
2022-08-08T20:03:14.897Z,46.58
2022-08-08T20:06:13.401Z,46.26
2022-08-08T20:08:44.638Z,45.93
2022-08-08T20:11:18.635Z,46.18
2022-08-08T20:14:32.241Z,46.64
2022-08-08T20:16:40.469Z,46.32
2022-08-08T20:19:09.277Z,47.01
2022-08-08T20:21:38.153Z,47.25
2022-08-08T20:24:06.053Z,47.42
2022-08-08T20:26:35.531Z,47.35
2022-08-08T20:29:06.231Z,47.30
2022-08-08T20:32:07.081Z,47.51
2022-08-08T20:34:28.852Z,47.68
2022-08-08T20:36:59.986Z,47.89
2022-08-08T20:39:33.742Z,48.44
2022-08-08T20:42:09.064Z,48.32
2022-08-08T20:44:36.144Z,48.08
2022-08-08T20:47:04.742Z,48.72
2022-08-08T20:49:46.771Z,49.04
2022-08-08T20:52:13.834Z,49.50
2022-08-08T20:54:41.998Z,50.10
2022-08-08T20:57:18.704Z,50.29
2022-08-08T20:59:53.456Z,50.79
2022-08-08T21:02:28.108Z,50.85
2022-08-08T21:05:01.309Z,49.92
2022-08-08T21:07:47.786Z,49.28
2022-08-08T21:10:16.508Z,49.37
2022-08-08T21:12:46.004Z,49.83
2022-08-08T21:15:16.192Z,49.91
2022-08-08T21:18:02.320Z,50.31
2022-08-08T21:20:34.432Z,50.61
2022-08-08T21:23:02.838Z,50.60
2022-08-08T21:25:36.014Z,51.12
2022-08-08T21:28:15.991Z,51.57
2022-08-08T21:30:52.133Z,52.10
2022-08-08T21:33:20.066Z,52.13
2022-08-08T21:36:14.288Z,52.17
2022-08-08T21:38:52.087Z,52.35
2022-08-08T21:41:58.776Z,52.69
2022-08-08T21:44:31.908Z,52.73
2022-08-08T21:48:07.945Z,52.43
2022-08-08T21:49:51.364Z,52.53
2022-08-08T21:54:33.385Z,52.82
2022-08-08T21:55:24.335Z,52.67
2022-08-08T21:58:05.420Z,53.11
2022-08-08T22:00:40.738Z,53.32
2022-08-08T22:03:17.568Z,53.39
2022-08-08T22:05:45.559Z,53.25
2022-08-08T22:08:24.076Z,53.64
2022-08-08T22:10:54.012Z,53.78
2022-08-08T22:13:23.770Z,54.04
2022-08-08T22:15:58.828Z,54.43
2022-08-08T22:18:42.009Z,54.62
2022-08-08T22:21:16.309Z,54.76
2022-08-08T22:23:52.207Z,54.97
2022-08-08T22:26:29.463Z,55.15
2022-08-08T22:29:13.059Z,55.51
2022-08-08T22:32:01.620Z,55.58
2022-08-08T22:34:39.799Z,55.33
2022-08-08T22:37:14.818Z,55.35
2022-08-08T22:40:00.350Z,55.19
2022-08-08T22:42:31.954Z,55.05
2022-08-08T22:45:03.510Z,55.08
2022-08-08T22:47:37.708Z,54.81
2022-08-08T22:50:20.750Z,54.33
2022-08-08T22:54:32.024Z,54.36
2022-08-08T22:55:58.329Z,54.22
2022-08-08T22:58:33.082Z,54.24
2022-08-08T23:01:30.226Z,54.08
2022-08-08T23:03:55.241Z,53.77
2022-08-08T23:06:26.276Z,53.79
2022-08-08T23:08:58.174Z,53.69
2022-08-08T23:11:58.010Z,53.88
2022-08-08T23:14:17.693Z,54.10
2022-08-08T23:16:46.250Z,54.35
2022-08-08T23:19:15.865Z,54.30
2022-08-08T23:21:42.507Z,54.31
2022-08-08T23:24:09.001Z,54.39
2022-08-08T23:26:35.685Z,54.75
2022-08-08T23:29:04.292Z,54.84
2022-08-08T23:31:38.894Z,54.41
2022-08-08T23:34:16.474Z,54.36
2022-08-08T23:36:46.274Z,54.55
2022-08-08T23:39:13.047Z,54.84
2022-08-08T23:41:45.793Z,54.91
2022-08-08T23:44:14.322Z,55.02
2022-08-08T23:49:02.528Z,55.40
2022-08-08T23:49:27.460Z,55.77
2022-08-08T23:52:04.318Z,56.36
2022-08-08T23:54:41.306Z,56.58
2022-08-08T23:57:15.283Z,56.87
